UUD weather

Ulan-Ude Airport (Mukhino)
Ulan Ude, Republic of Buryat, Russia

Public forecast

Using degrees Celsius for public forecast. Weather courtesy of forecast.io.

Current aviation weather report (METAR) for Ulan-Ude Airport (Mukhino)

Retrieved 2020/04/05 00:30 UTC (27 minutes ago):

UIUU 050030Z 04004MPS 9999 SCT036CB 04/M04 Q1031 R26/CLRD60 NOSIG RMK QFE728/0971

Aviation forecast (TAF) for Ulan-Ude Airport (Mukhino)

Retrieved 2020-04-05 00:21 UTC (36 minutes ago):

TAF UIUU 042300Z 0500/0524 36005G10MPS 9999 BKN030CB TEMPO 0500/0512 34010G18MPS 2500 -SHSNRA BKN014CB